sensor_id;sensor_type;location;lat;lon;timestamp;P1;durP1;ratioP1;P2;durP2;ratioP2
1977;SDS011;989;53.016;8.346;2024-03-07T00:01:00;8.43;;;5.93;;
1977;SDS011;989;53.016;8.346;2024-03-07T00:03:25;13.07;;;6.00;;
1977;SDS011;989;53.016;8.346;2024-03-07T00:05:51;10.13;;;6.50;;
1977;SDS011;989;53.016;8.346;2024-03-07T00:08:16;7.37;;;5.73;;
1977;SDS011;989;53.016;8.346;2024-03-07T00:10:42;9.10;;;7.30;;
1977;SDS011;989;53.016;8.346;2024-03-07T00:13:09;8.95;;;6.13;;
1977;SDS011;989;53.016;8.346;2024-03-07T00:15:34;9.33;;;6.10;;
1977;SDS011;989;53.016;8.346;2024-03-07T00:18:00;10.63;;;6.37;;
1977;SDS011;989;53.016;8.346;2024-03-07T00:20:25;6.70;;;5.03;;
1977;SDS011;989;53.016;8.346;2024-03-07T00:22:51;6.80;;;5.40;;
1977;SDS011;989;53.016;8.346;2024-03-07T00:25:16;9.10;;;6.40;;
1977;SDS011;989;53.016;8.346;2024-03-07T00:27:44;11.68;;;6.78;;
1977;SDS011;989;53.016;8.346;2024-03-07T00:30:10;11.17;;;6.33;;
1977;SDS011;989;53.016;8.346;2024-03-07T00:32:38;12.32;;;7.20;;
1977;SDS011;989;53.016;8.346;2024-03-07T00:35:05;9.75;;;5.75;;
1977;SDS011;989;53.016;8.346;2024-03-07T00:37:31;6.80;;;5.43;;
1977;SDS011;989;53.016;8.346;2024-03-07T00:39:56;9.07;;;6.40;;
1977;SDS011;989;53.016;8.346;2024-03-07T00:42:22;13.03;;;6.80;;
1977;SDS011;989;53.016;8.346;2024-03-07T00:44:48;7.60;;;5.20;;
1977;SDS011;989;53.016;8.346;2024-03-07T00:47:14;12.15;;;6.75;;
1977;SDS011;989;53.016;8.346;2024-03-07T00:49:40;6.93;;;5.40;;
1977;SDS011;989;53.016;8.346;2024-03-07T00:52:05;11.97;;;6.00;;
1977;SDS011;989;53.016;8.346;2024-03-07T00:54:31;8.23;;;5.67;;
1977;SDS011;989;53.016;8.346;2024-03-07T00:56:56;9.60;;;6.20;;
1977;SDS011;989;53.016;8.346;2024-03-07T00:59:21;8.13;;;6.00;;
1977;SDS011;989;53.016;8.346;2024-03-07T01:01:47;8.97;;;5.67;;
1977;SDS011;989;53.016;8.346;2024-03-07T01:04:14;8.15;;;5.97;;
1977;SDS011;989;53.016;8.346;2024-03-07T01:06:39;9.40;;;6.83;;
1977;SDS011;989;53.016;8.346;2024-03-07T01:09:06;9.13;;;6.22;;
1977;SDS011;989;53.016;8.346;2024-03-07T01:11:38;6.97;;;5.80;;
1977;SDS011;989;53.016;8.346;2024-03-07T01:14:04;10.77;;;6.47;;
1977;SDS011;989;53.016;8.346;2024-03-07T01:16:29;7.97;;;5.97;;
1977;SDS011;989;53.016;8.346;2024-03-07T01:18:55;7.70;;;6.10;;
1977;SDS011;989;53.016;8.346;2024-03-07T01:21:20;9.00;;;6.40;;
1977;SDS011;989;53.016;8.346;2024-03-07T01:23:46;9.80;;;7.43;;
1977;SDS011;989;53.016;8.346;2024-03-07T01:26:11;10.33;;;7.20;;
1977;SDS011;989;53.016;8.346;2024-03-07T01:28:37;12.40;;;7.25;;
1977;SDS011;989;53.016;8.346;2024-03-07T01:31:02;13.80;;;7.27;;
1977;SDS011;989;53.016;8.346;2024-03-07T01:33:28;12.03;;;8.43;;
1977;SDS011;989;53.016;8.346;2024-03-07T01:35:53;14.10;;;7.83;;
1977;SDS011;989;53.016;8.346;2024-03-07T01:38:19;13.80;;;8.10;;
1977;SDS011;989;53.016;8.346;2024-03-07T01:40:44;13.50;;;8.47;;
1977;SDS011;989;53.016;8.346;2024-03-07T01:43:10;13.23;;;8.33;;
1977;SDS011;989;53.016;8.346;2024-03-07T01:45:35;11.20;;;7.57;;
1977;SDS011;989;53.016;8.346;2024-03-07T01:48:04;14.00;;;8.15;;
1977;SDS011;989;53.016;8.346;2024-03-07T01:50:30;15.98;;;9.18;;
1977;SDS011;989;53.016;8.346;2024-03-07T01:52:56;15.33;;;9.53;;
1977;SDS011;989;53.016;8.346;2024-03-07T01:55:22;13.60;;;8.77;;
1977;SDS011;989;53.016;8.346;2024-03-07T01:57:48;16.88;;;8.43;;
1977;SDS011;989;53.016;8.346;2024-03-07T02:00:14;12.75;;;8.00;;
1977;SDS011;989;53.016;8.346;2024-03-07T02:02:39;12.33;;;7.80;;
1977;SDS011;989;53.016;8.346;2024-03-07T02:05:05;12.50;;;8.77;;
1977;SDS011;989;53.016;8.346;2024-03-07T02:07:31;10.50;;;7.17;;
1977;SDS011;989;53.016;8.346;2024-03-07T02:10:00;12.23;;;8.60;;
1977;SDS011;989;53.016;8.346;2024-03-07T02:12:26;13.50;;;8.85;;
1977;SDS011;989;53.016;8.346;2024-03-07T02:14:51;13.27;;;7.30;;
1977;SDS011;989;53.016;8.346;2024-03-07T02:17:17;14.00;;;8.40;;
1977;SDS011;989;53.016;8.346;2024-03-07T02:19:43;13.98;;;9.57;;
1977;SDS011;989;53.016;8.346;2024-03-07T02:22:09;15.10;;;9.50;;
1977;SDS011;989;53.016;8.346;2024-03-07T02:24:34;14.00;;;9.30;;
1977;SDS011;989;53.016;8.346;2024-03-07T02:26:59;11.93;;;7.93;;
1977;SDS011;989;53.016;8.346;2024-03-07T02:29:25;14.80;;;8.57;;
1977;SDS011;989;53.016;8.346;2024-03-07T02:31:51;14.43;;;7.95;;
1977;SDS011;989;53.016;8.346;2024-03-07T02:34:16;10.43;;;7.80;;
1977;SDS011;989;53.016;8.346;2024-03-07T02:36:42;10.20;;;7.80;;
1977;SDS011;989;53.016;8.346;2024-03-07T02:39:07;11.27;;;7.57;;
1977;SDS011;989;53.016;8.346;2024-03-07T02:41:33;12.97;;;8.00;;
1977;SDS011;989;53.016;8.346;2024-03-07T02:43:59;13.87;;;8.00;;
1977;SDS011;989;53.016;8.346;2024-03-07T02:46:26;12.88;;;9.15;;
1977;SDS011;989;53.016;8.346;2024-03-07T02:48:51;9.37;;;7.60;;
1977;SDS011;989;53.016;8.346;2024-03-07T02:51:17;12.23;;;7.40;;
1977;SDS011;989;53.016;8.346;2024-03-07T02:53:42;10.10;;;7.57;;
1977;SDS011;989;53.016;8.346;2024-03-07T02:56:07;10.73;;;7.60;;
1977;SDS011;989;53.016;8.346;2024-03-07T02:58:34;11.85;;;7.28;;
1977;SDS011;989;53.016;8.346;2024-03-07T03:01:00;10.00;;;7.60;;
1977;SDS011;989;53.016;8.346;2024-03-07T03:03:26;13.90;;;8.00;;
1977;SDS011;989;53.016;8.346;2024-03-07T03:05:51;11.75;;;8.48;;
1977;SDS011;989;53.016;8.346;2024-03-07T03:08:17;12.03;;;8.17;;
1977;SDS011;989;53.016;8.346;2024-03-07T03:10:42;9.87;;;7.57;;
1977;SDS011;989;53.016;8.346;2024-03-07T03:13:09;14.65;;;9.13;;
1977;SDS011;989;53.016;8.346;2024-03-07T03:15:34;11.47;;;8.47;;
1977;SDS011;989;53.016;8.346;2024-03-07T03:18:00;11.20;;;8.83;;
1977;SDS011;989;53.016;8.346;2024-03-07T03:20:25;13.93;;;8.40;;
1977;SDS011;989;53.016;8.346;2024-03-07T03:22:51;14.10;;;9.80;;
1977;SDS011;989;53.016;8.346;2024-03-07T03:25:18;14.85;;;9.18;;
1977;SDS011;989;53.016;8.346;2024-03-07T03:27:44;15.63;;;10.30;;
1977;SDS011;989;53.016;8.346;2024-03-07T03:30:09;23.00;;;12.77;;
1977;SDS011;989;53.016;8.346;2024-03-07T03:32:38;22.02;;;12.55;;
1977;SDS011;989;53.016;8.346;2024-03-07T03:35:04;22.02;;;11.73;;
1977;SDS011;989;53.016;8.346;2024-03-07T03:37:30;21.90;;;11.87;;
1977;SDS011;989;53.016;8.346;2024-03-07T03:39:55;18.47;;;11.50;;
1977;SDS011;989;53.016;8.346;2024-03-07T03:42:21;39.57;;;14.90;;
1977;SDS011;989;53.016;8.346;2024-03-07T03:44:46;19.30;;;12.60;;
1977;SDS011;989;53.016;8.346;2024-03-07T03:47:12;28.23;;;14.90;;
1977;SDS011;989;53.016;8.346;2024-03-07T03:49:37;21.70;;;13.63;;
1977;SDS011;989;53.016;8.346;2024-03-07T03:52:02;25.97;;;14.67;;
1977;SDS011;989;53.016;8.346;2024-03-07T03:54:28;33.73;;;16.30;;
1977;SDS011;989;53.016;8.346;2024-03-07T03:56:54;26.35;;;12.43;;
1977;SDS011;989;53.016;8.346;2024-03-07T03:59:19;57.37;;;16.63;;
1977;SDS011;989;53.016;8.346;2024-03-07T04:01:45;42.67;;;17.47;;
1977;SDS011;989;53.016;8.346;2024-03-07T04:04:10;28.30;;;12.57;;
1977;SDS011;989;53.016;8.346;2024-03-07T04:06:35;22.43;;;11.60;;
1977;SDS011;989;53.016;8.346;2024-03-07T04:09:01;34.83;;;13.20;;
1977;SDS011;989;53.016;8.346;2024-03-07T04:11:26;18.63;;;9.33;;
1977;SDS011;989;53.016;8.346;2024-03-07T04:13:52;28.23;;;11.13;;
1977;SDS011;989;53.016;8.346;2024-03-07T04:16:17;39.23;;;13.17;;
1977;SDS011;989;53.016;8.346;2024-03-07T04:18:43;30.00;;;11.10;;
1977;SDS011;989;53.016;8.346;2024-03-07T04:21:08;32.40;;;13.33;;
1977;SDS011;989;53.016;8.346;2024-03-07T04:23:34;47.70;;;14.52;;
1977;SDS011;989;53.016;8.346;2024-03-07T04:26:00;21.80;;;13.77;;
1977;SDS011;989;53.016;8.346;2024-03-07T04:28:25;37.67;;;14.13;;
1977;SDS011;989;53.016;8.346;2024-03-07T04:30:50;51.47;;;13.50;;
1977;SDS011;989;53.016;8.346;2024-03-07T04:33:18;19.88;;;12.07;;
1977;SDS011;989;53.016;8.346;2024-03-07T04:35:44;48.58;;;13.55;;
1977;SDS011;989;53.016;8.346;2024-03-07T04:38:10;69.33;;;14.20;;
1977;SDS011;989;53.016;8.346;2024-03-07T04:40:40;35.15;;;14.25;;
1977;SDS011;989;53.016;8.346;2024-03-07T04:43:06;57.15;;;13.88;;
1977;SDS011;989;53.016;8.346;2024-03-07T04:45:32;28.52;;;12.48;;
1977;SDS011;989;53.016;8.346;2024-03-07T04:47:58;24.75;;;12.05;;
1977;SDS011;989;53.016;8.346;2024-03-07T04:50:24;50.13;;;13.90;;
1977;SDS011;989;53.016;8.346;2024-03-07T04:52:49;38.13;;;12.77;;
1977;SDS011;989;53.016;8.346;2024-03-07T04:55:15;45.80;;;11.13;;
1977;SDS011;989;53.016;8.346;2024-03-07T04:57:40;22.13;;;10.50;;
1977;SDS011;989;53.016;8.346;2024-03-07T05:00:06;30.57;;;11.30;;
1977;SDS011;989;53.016;8.346;2024-03-07T05:02:34;50.13;;;14.25;;
1977;SDS011;989;53.016;8.346;2024-03-07T05:04:59;40.03;;;13.57;;
1977;SDS011;989;53.016;8.346;2024-03-07T05:07:25;49.53;;;15.27;;
1977;SDS011;989;53.016;8.346;2024-03-07T05:09:51;29.93;;;14.50;;
1977;SDS011;989;53.016;8.346;2024-03-07T05:12:16;22.80;;;12.67;;
1977;SDS011;989;53.016;8.346;2024-03-07T05:14:42;43.10;;;15.20;;
1977;SDS011;989;53.016;8.346;2024-03-07T05:17:07;57.03;;;16.23;;
1977;SDS011;989;53.016;8.346;2024-03-07T05:19:35;75.07;;;18.75;;
1977;SDS011;989;53.016;8.346;2024-03-07T05:22:01;40.97;;;16.70;;
1977;SDS011;989;53.016;8.346;2024-03-07T05:24:29;47.17;;;15.45;;
1977;SDS011;989;53.016;8.346;2024-03-07T05:26:55;24.83;;;14.00;;
1977;SDS011;989;53.016;8.346;2024-03-07T05:29:21;35.13;;;15.40;;
1977;SDS011;989;53.016;8.346;2024-03-07T05:31:47;61.90;;;16.57;;
1977;SDS011;989;53.016;8.346;2024-03-07T05:34:13;88.73;;;18.43;;
1977;SDS011;989;53.016;8.346;2024-03-07T05:36:40;41.65;;;15.27;;
1977;SDS011;989;53.016;8.346;2024-03-07T05:39:15;73.78;;;19.25;;
1977;SDS011;989;53.016;8.346;2024-03-07T05:41:42;41.03;;;14.93;;
1977;SDS011;989;53.016;8.346;2024-03-07T05:44:10;34.22;;;13.55;;
1977;SDS011;989;53.016;8.346;2024-03-07T05:46:36;21.30;;;12.00;;
1977;SDS011;989;53.016;8.346;2024-03-07T05:49:06;41.03;;;16.92;;
1977;SDS011;989;53.016;8.346;2024-03-07T05:51:31;34.30;;;14.20;;
1977;SDS011;989;53.016;8.346;2024-03-07T05:53:57;35.73;;;15.73;;
1977;SDS011;989;53.016;8.346;2024-03-07T05:56:22;31.30;;;15.80;;
1977;SDS011;989;53.016;8.346;2024-03-07T05:58:48;41.47;;;16.80;;
1977;SDS011;989;53.016;8.346;2024-03-07T06:01:13;50.37;;;16.53;;
1977;SDS011;989;53.016;8.346;2024-03-07T06:03:39;44.43;;;17.40;;
1977;SDS011;989;53.016;8.346;2024-03-07T06:06:04;63.30;;;19.33;;
1977;SDS011;989;53.016;8.346;2024-03-07T06:08:32;44.35;;;17.15;;
1977;SDS011;989;53.016;8.346;2024-03-07T06:10:58;84.33;;;20.20;;
1977;SDS011;989;53.016;8.346;2024-03-07T06:13:24;82.28;;;19.80;;
1977;SDS011;989;53.016;8.346;2024-03-07T06:15:49;47.37;;;17.30;;
1977;SDS011;989;53.016;8.346;2024-03-07T06:18:15;28.70;;;15.07;;
1977;SDS011;989;53.016;8.346;2024-03-07T06:20:41;30.73;;;15.47;;
1977;SDS011;989;53.016;8.346;2024-03-07T06:23:06;29.63;;;15.30;;
1977;SDS011;989;53.016;8.346;2024-03-07T06:25:32;31.13;;;13.77;;
1977;SDS011;989;53.016;8.346;2024-03-07T06:28:17;32.17;;;12.20;;
1977;SDS011;989;53.016;8.346;2024-03-07T06:30:43;26.90;;;12.68;;
1977;SDS011;989;53.016;8.346;2024-03-07T06:33:13;28.67;;;13.07;;
1977;SDS011;989;53.016;8.346;2024-03-07T06:35:39;44.92;;;13.50;;
1977;SDS011;989;53.016;8.346;2024-03-07T06:38:06;40.05;;;13.50;;
1977;SDS011;989;53.016;8.346;2024-03-07T06:40:38;27.00;;;12.25;;
1977;SDS011;989;53.016;8.346;2024-03-07T06:43:10;31.38;;;12.73;;
1977;SDS011;989;53.016;8.346;2024-03-07T06:45:39;21.10;;;11.70;;
1977;SDS011;989;53.016;8.346;2024-03-07T06:48:05;21.80;;;10.20;;
1977;SDS011;989;53.016;8.346;2024-03-07T06:50:34;27.48;;;10.82;;
1977;SDS011;989;53.016;8.346;2024-03-07T06:53:00;23.87;;;10.80;;
1977;SDS011;989;53.016;8.346;2024-03-07T06:55:26;24.67;;;11.45;;
1977;SDS011;989;53.016;8.346;2024-03-07T06:57:52;19.42;;;13.27;;
1977;SDS011;989;53.016;8.346;2024-03-07T07:00:19;25.02;;;14.15;;
1977;SDS011;989;53.016;8.346;2024-03-07T07:02:45;44.08;;;16.92;;
1977;SDS011;989;53.016;8.346;2024-03-07T07:05:11;30.23;;;16.58;;
1977;SDS011;989;53.016;8.346;2024-03-07T07:07:39;32.77;;;16.60;;
1977;SDS011;989;53.016;8.346;2024-03-07T07:10:08;41.35;;;18.42;;
1977;SDS011;989;53.016;8.346;2024-03-07T07:12:47;37.42;;;17.40;;
1977;SDS011;989;53.016;8.346;2024-03-07T07:15:17;37.42;;;18.58;;
1977;SDS011;989;53.016;8.346;2024-03-07T07:17:46;40.65;;;20.00;;
1977;SDS011;989;53.016;8.346;2024-03-07T07:20:14;43.17;;;19.95;;
1977;SDS011;989;53.016;8.346;2024-03-07T07:22:44;33.75;;;19.52;;
1977;SDS011;989;53.016;8.346;2024-03-07T07:25:11;38.92;;;20.23;;
1977;SDS011;989;53.016;8.346;2024-03-07T07:27:41;38.55;;;19.92;;
1977;SDS011;989;53.016;8.346;2024-03-07T07:30:08;36.75;;;20.73;;
1977;SDS011;989;53.016;8.346;2024-03-07T07:32:35;40.97;;;19.80;;
1977;SDS011;989;53.016;8.346;2024-03-07T07:35:01;41.33;;;19.95;;
1977;SDS011;989;53.016;8.346;2024-03-07T07:37:27;46.40;;;19.40;;
1977;SDS011;989;53.016;8.346;2024-03-07T07:39:52;38.00;;;19.30;;
1977;SDS011;989;53.016;8.346;2024-03-07T07:42:17;37.00;;;17.07;;
1977;SDS011;989;53.016;8.346;2024-03-07T07:44:43;37.17;;;18.40;;
1977;SDS011;989;53.016;8.346;2024-03-07T07:47:09;29.53;;;17.20;;
1977;SDS011;989;53.016;8.346;2024-03-07T07:49:35;31.58;;;16.90;;
1977;SDS011;989;53.016;8.346;2024-03-07T07:52:03;28.10;;;17.00;;
1977;SDS011;989;53.016;8.346;2024-03-07T07:54:29;30.27;;;16.00;;
1977;SDS011;989;53.016;8.346;2024-03-07T07:56:54;28.50;;;15.73;;
1977;SDS011;989;53.016;8.346;2024-03-07T07:59:20;22.97;;;13.77;;
1977;SDS011;989;53.016;8.346;2024-03-07T08:01:45;25.10;;;14.10;;
1977;SDS011;989;53.016;8.346;2024-03-07T08:04:11;24.90;;;13.90;;
1977;SDS011;989;53.016;8.346;2024-03-07T08:06:36;23.67;;;13.50;;
1977;SDS011;989;53.016;8.346;2024-03-07T08:09:02;27.50;;;15.00;;
1977;SDS011;989;53.016;8.346;2024-03-07T08:11:27;26.37;;;14.87;;
1977;SDS011;989;53.016;8.346;2024-03-07T08:13:52;29.53;;;15.30;;
1977;SDS011;989;53.016;8.346;2024-03-07T08:16:18;33.37;;;16.37;;
1977;SDS011;989;53.016;8.346;2024-03-07T08:18:43;32.90;;;16.73;;
1977;SDS011;989;53.016;8.346;2024-03-07T08:21:09;45.93;;;19.43;;
1977;SDS011;989;53.016;8.346;2024-03-07T08:23:38;43.63;;;19.20;;
1977;SDS011;989;53.016;8.346;2024-03-07T08:26:03;29.90;;;16.70;;
1977;SDS011;989;53.016;8.346;2024-03-07T08:28:30;36.58;;;18.17;;
1977;SDS011;989;53.016;8.346;2024-03-07T08:30:56;24.10;;;14.90;;
1977;SDS011;989;53.016;8.346;2024-03-07T08:33:21;30.20;;;16.50;;
1977;SDS011;989;53.016;8.346;2024-03-07T08:35:50;36.17;;;17.03;;
1977;SDS011;989;53.016;8.346;2024-03-07T08:38:18;40.38;;;19.10;;
1977;SDS011;989;53.016;8.346;2024-03-07T08:40:43;32.10;;;16.13;;
1977;SDS011;989;53.016;8.346;2024-03-07T08:43:09;32.30;;;17.60;;
1977;SDS011;989;53.016;8.346;2024-03-07T08:45:34;53.57;;;20.53;;
1977;SDS011;989;53.016;8.346;2024-03-07T08:47:59;37.43;;;17.90;;
1977;SDS011;989;53.016;8.346;2024-03-07T08:50:25;36.07;;;18.60;;
1977;SDS011;989;53.016;8.346;2024-03-07T08:52:51;33.42;;;19.13;;
1977;SDS011;989;53.016;8.346;2024-03-07T08:55:19;44.30;;;19.87;;
1977;SDS011;989;53.016;8.346;2024-03-07T08:57:45;39.17;;;18.27;;
1977;SDS011;989;53.016;8.346;2024-03-07T09:00:11;33.67;;;17.60;;
1977;SDS011;989;53.016;8.346;2024-03-07T09:02:47;33.78;;;19.83;;
1977;SDS011;989;53.016;8.346;2024-03-07T09:05:13;32.60;;;18.02;;
1977;SDS011;989;53.016;8.346;2024-03-07T09:07:40;39.72;;;20.05;;
1977;SDS011;989;53.016;8.346;2024-03-07T09:10:06;33.17;;;18.47;;
1977;SDS011;989;53.016;8.346;2024-03-07T09:12:32;38.13;;;18.83;;
1977;SDS011;989;53.016;8.346;2024-03-07T09:14:57;34.13;;;18.33;;
1977;SDS011;989;53.016;8.346;2024-03-07T09:17:23;34.40;;;18.47;;
1977;SDS011;989;53.016;8.346;2024-03-07T09:19:48;32.77;;;20.00;;
1977;SDS011;989;53.016;8.346;2024-03-07T09:22:13;34.93;;;19.43;;
1977;SDS011;989;53.016;8.346;2024-03-07T09:24:39;30.27;;;19.27;;
1977;SDS011;989;53.016;8.346;2024-03-07T09:27:04;33.93;;;18.60;;
1977;SDS011;989;53.016;8.346;2024-03-07T09:29:30;34.50;;;20.33;;
1977;SDS011;989;53.016;8.346;2024-03-07T09:31:55;33.37;;;20.03;;
1977;SDS011;989;53.016;8.346;2024-03-07T09:34:22;31.38;;;18.45;;
1977;SDS011;989;53.016;8.346;2024-03-07T09:36:48;37.40;;;20.03;;
1977;SDS011;989;53.016;8.346;2024-03-07T09:39:16;40.20;;;21.83;;
1977;SDS011;989;53.016;8.346;2024-03-07T09:41:42;33.47;;;18.67;;
1977;SDS011;989;53.016;8.346;2024-03-07T09:44:14;34.60;;;19.13;;
1977;SDS011;989;53.016;8.346;2024-03-07T09:46:47;34.55;;;18.30;;
1977;SDS011;989;53.016;8.346;2024-03-07T09:49:14;33.70;;;19.35;;
1977;SDS011;989;53.016;8.346;2024-03-07T09:51:40;41.63;;;21.50;;
1977;SDS011;989;53.016;8.346;2024-03-07T09:54:07;38.50;;;18.30;;
1977;SDS011;989;53.016;8.346;2024-03-07T09:56:33;34.50;;;19.83;;
1977;SDS011;989;53.016;8.346;2024-03-07T09:59:01;35.75;;;19.90;;
1977;SDS011;989;53.016;8.346;2024-03-07T10:01:29;40.38;;;21.23;;
1977;SDS011;989;53.016;8.346;2024-03-07T10:03:59;35.93;;;20.90;;
1977;SDS011;989;53.016;8.346;2024-03-07T10:06:36;34.35;;;19.83;;
1977;SDS011;989;53.016;8.346;2024-03-07T10:09:03;41.20;;;20.85;;
1977;SDS011;989;53.016;8.346;2024-03-07T10:11:29;32.90;;;16.30;;
1977;SDS011;989;53.016;8.346;2024-03-07T10:13:55;35.50;;;16.73;;
1977;SDS011;989;53.016;8.346;2024-03-07T10:16:20;28.43;;;15.67;;
1977;SDS011;989;53.016;8.346;2024-03-07T10:18:46;35.20;;;15.67;;
1977;SDS011;989;53.016;8.346;2024-03-07T10:21:14;26.87;;;15.57;;
1977;SDS011;989;53.016;8.346;2024-03-07T10:23:42;30.47;;;17.67;;
1977;SDS011;989;53.016;8.346;2024-03-07T10:26:07;28.70;;;16.63;;
1977;SDS011;989;53.016;8.346;2024-03-07T10:28:34;30.38;;;16.45;;
1977;SDS011;989;53.016;8.346;2024-03-07T10:30:59;38.37;;;17.93;;
1977;SDS011;989;53.016;8.346;2024-03-07T10:33:28;39.70;;;18.43;;
1977;SDS011;989;53.016;8.346;2024-03-07T10:35:58;30.45;;;15.88;;
1977;SDS011;989;53.016;8.346;2024-03-07T10:38:23;32.90;;;15.87;;
1977;SDS011;989;53.016;8.346;2024-03-07T10:40:52;32.43;;;16.23;;
1977;SDS011;989;53.016;8.346;2024-03-07T10:43:19;28.60;;;15.70;;
1977;SDS011;989;53.016;8.346;2024-03-07T10:45:45;32.30;;;13.70;;
1977;SDS011;989;53.016;8.346;2024-03-07T10:48:11;30.00;;;16.23;;
1977;SDS011;989;53.016;8.346;2024-03-07T10:53:59;30.88;;;17.20;;
1977;SDS011;989;53.016;8.346;2024-03-07T10:59:22;28.02;;;15.73;;
1977;SDS011;989;53.016;8.346;2024-03-07T11:04:49;30.05;;;18.02;;
1977;SDS011;989;53.016;8.346;2024-03-07T11:07:16;30.52;;;18.63;;
1977;SDS011;989;53.016;8.346;2024-03-07T11:09:43;37.93;;;18.13;;
1977;SDS011;989;53.016;8.346;2024-03-07T11:12:11;31.83;;;16.27;;
1977;SDS011;989;53.016;8.346;2024-03-07T11:14:37;25.80;;;15.17;;
1977;SDS011;989;53.016;8.346;2024-03-07T11:17:03;32.13;;;17.27;;
1977;SDS011;989;53.016;8.346;2024-03-07T11:19:31;32.03;;;16.87;;
1977;SDS011;989;53.016;8.346;2024-03-07T11:21:57;27.27;;;15.87;;
1977;SDS011;989;53.016;8.346;2024-03-07T11:24:32;29.45;;;15.23;;
1977;SDS011;989;53.016;8.346;2024-03-07T11:26:58;32.53;;;15.23;;
1977;SDS011;989;53.016;8.346;2024-03-07T11:32:12;29.90;;;16.73;;
1977;SDS011;989;53.016;8.346;2024-03-07T11:34:39;30.10;;;15.93;;
1977;SDS011;989;53.016;8.346;2024-03-07T11:37:06;35.40;;;15.10;;
1977;SDS011;989;53.016;8.346;2024-03-07T11:39:45;27.00;;;15.60;;
1977;SDS011;989;53.016;8.346;2024-03-07T11:42:19;25.27;;;13.50;;
1977;SDS011;989;53.016;8.346;2024-03-07T11:44:48;30.48;;;15.20;;
1977;SDS011;989;53.016;8.346;2024-03-07T11:47:14;27.83;;;14.97;;
1977;SDS011;989;53.016;8.346;2024-03-07T11:49:39;29.93;;;14.37;;
1977;SDS011;989;53.016;8.346;2024-03-07T11:52:05;26.70;;;14.70;;
1977;SDS011;989;53.016;8.346;2024-03-07T11:54:37;24.70;;;14.03;;
1977;SDS011;989;53.016;8.346;2024-03-07T11:57:05;25.45;;;13.57;;
1977;SDS011;989;53.016;8.346;2024-03-07T11:59:42;27.77;;;13.75;;
1977;SDS011;989;53.016;8.346;2024-03-07T12:02:14;22.40;;;13.23;;
1977;SDS011;989;53.016;8.346;2024-03-07T12:04:46;23.92;;;14.90;;
1977;SDS011;989;53.016;8.346;2024-03-07T12:07:18;25.95;;;14.25;;
1977;SDS011;989;53.016;8.346;2024-03-07T12:09:44;26.23;;;15.45;;
1977;SDS011;989;53.016;8.346;2024-03-07T12:12:15;34.08;;;14.48;;
1977;SDS011;989;53.016;8.346;2024-03-07T12:14:46;27.55;;;13.98;;
1977;SDS011;989;53.016;8.346;2024-03-07T12:17:12;31.45;;;15.43;;
1977;SDS011;989;53.016;8.346;2024-03-07T12:19:39;31.83;;;14.27;;
1977;SDS011;989;53.016;8.346;2024-03-07T12:22:07;33.57;;;14.30;;
1977;SDS011;989;53.016;8.346;2024-03-07T12:24:40;27.92;;;14.60;;
1977;SDS011;989;53.016;8.346;2024-03-07T12:27:09;25.83;;;13.20;;
1977;SDS011;989;53.016;8.346;2024-03-07T12:29:39;25.80;;;14.27;;
1977;SDS011;989;53.016;8.346;2024-03-07T12:32:05;23.60;;;13.10;;
1977;SDS011;989;53.016;8.346;2024-03-07T12:34:33;26.90;;;15.40;;
1977;SDS011;989;53.016;8.346;2024-03-07T12:37:02;33.15;;;13.80;;
1977;SDS011;989;53.016;8.346;2024-03-07T12:39:28;20.98;;;12.40;;
1977;SDS011;989;53.016;8.346;2024-03-07T12:42:00;19.50;;;10.27;;
1977;SDS011;989;53.016;8.346;2024-03-07T12:44:28;19.05;;;11.82;;
1977;SDS011;989;53.016;8.346;2024-03-07T12:47:07;17.80;;;10.93;;
1977;SDS011;989;53.016;8.346;2024-03-07T12:49:34;20.90;;;11.38;;
1977;SDS011;989;53.016;8.346;2024-03-07T12:52:00;16.07;;;10.87;;
1977;SDS011;989;53.016;8.346;2024-03-07T12:54:25;24.17;;;11.93;;
1977;SDS011;989;53.016;8.346;2024-03-07T12:56:52;16.27;;;10.70;;
1977;SDS011;989;53.016;8.346;2024-03-07T12:59:17;22.73;;;12.97;;
1977;SDS011;989;53.016;8.346;2024-03-07T13:01:44;25.13;;;12.98;;
1977;SDS011;989;53.016;8.346;2024-03-07T13:04:12;21.50;;;12.73;;
1977;SDS011;989;53.016;8.346;2024-03-07T13:06:38;31.30;;;12.63;;
1977;SDS011;989;53.016;8.346;2024-03-07T13:09:08;23.25;;;12.55;;
1977;SDS011;989;53.016;8.346;2024-03-07T13:11:39;22.60;;;11.75;;
1977;SDS011;989;53.016;8.346;2024-03-07T13:14:12;20.27;;;12.13;;
1977;SDS011;989;53.016;8.346;2024-03-07T13:16:38;17.75;;;12.50;;
1977;SDS011;989;53.016;8.346;2024-03-07T13:19:04;20.27;;;10.50;;
1977;SDS011;989;53.016;8.346;2024-03-07T13:21:32;22.73;;;12.13;;
1977;SDS011;989;53.016;8.346;2024-03-07T13:24:00;16.58;;;10.85;;
1977;SDS011;989;53.016;8.346;2024-03-07T13:26:26;25.80;;;12.10;;
1977;SDS011;989;53.016;8.346;2024-03-07T13:28:55;18.02;;;10.27;;
1977;SDS011;989;53.016;8.346;2024-03-07T13:31:21;18.50;;;10.37;;
1977;SDS011;989;53.016;8.346;2024-03-07T13:33:48;20.98;;;11.75;;
1977;SDS011;989;53.016;8.346;2024-03-07T13:36:16;16.48;;;10.23;;
1977;SDS011;989;53.016;8.346;2024-03-07T13:38:49;17.02;;;10.18;;
1977;SDS011;989;53.016;8.346;2024-03-07T13:41:17;17.63;;;10.82;;
1977;SDS011;989;53.016;8.346;2024-03-07T13:43:45;18.83;;;10.93;;
1977;SDS011;989;53.016;8.346;2024-03-07T13:46:10;18.13;;;9.60;;
1977;SDS011;989;53.016;8.346;2024-03-07T13:48:37;27.38;;;10.77;;
1977;SDS011;989;53.016;8.346;2024-03-07T13:51:03;15.37;;;9.57;;
1977;SDS011;989;53.016;8.346;2024-03-07T13:53:32;16.65;;;9.55;;
1977;SDS011;989;53.016;8.346;2024-03-07T14:01:54;17.35;;;9.48;;
1977;SDS011;989;53.016;8.346;2024-03-07T14:04:45;22.98;;;11.30;;
1977;SDS011;989;53.016;8.346;2024-03-07T14:07:50;18.50;;;11.15;;
1977;SDS011;989;53.016;8.346;2024-03-07T14:13:41;20.35;;;10.70;;
1977;SDS011;989;53.016;8.346;2024-03-07T14:27:43;20.00;;;10.40;;
1977;SDS011;989;53.016;8.346;2024-03-07T14:33:05;18.90;;;11.48;;
1977;SDS011;989;53.016;8.346;2024-03-07T14:38:23;25.95;;;11.93;;
1977;SDS011;989;53.016;8.346;2024-03-07T14:40:51;22.27;;;11.45;;
1977;SDS011;989;53.016;8.346;2024-03-07T14:43:18;15.73;;;9.43;;
1977;SDS011;989;53.016;8.346;2024-03-07T14:45:44;17.17;;;11.32;;
1977;SDS011;989;53.016;8.346;2024-03-07T14:48:11;20.27;;;10.70;;
1977;SDS011;989;53.016;8.346;2024-03-07T14:50:40;20.77;;;11.50;;
1977;SDS011;989;53.016;8.346;2024-03-07T14:53:07;20.20;;;10.95;;
1977;SDS011;989;53.016;8.346;2024-03-07T14:55:32;18.60;;;10.47;;
1977;SDS011;989;53.016;8.346;2024-03-07T14:57:58;19.55;;;11.02;;
1977;SDS011;989;53.016;8.346;2024-03-07T15:00:24;23.43;;;11.23;;
1977;SDS011;989;53.016;8.346;2024-03-07T15:02:53;26.13;;;12.02;;
1977;SDS011;989;53.016;8.346;2024-03-07T15:05:23;21.08;;;11.55;;
1977;SDS011;989;53.016;8.346;2024-03-07T15:07:49;25.57;;;11.93;;
1977;SDS011;989;53.016;8.346;2024-03-07T15:10:30;28.10;;;12.32;;
1977;SDS011;989;53.016;8.346;2024-03-07T15:12:58;16.65;;;10.43;;
1977;SDS011;989;53.016;8.346;2024-03-07T15:15:24;22.25;;;11.63;;
1977;SDS011;989;53.016;8.346;2024-03-07T15:17:53;22.73;;;12.15;;
1977;SDS011;989;53.016;8.346;2024-03-07T15:20:18;19.13;;;12.03;;
1977;SDS011;989;53.016;8.346;2024-03-07T15:22:50;26.65;;;13.43;;
1977;SDS011;989;53.016;8.346;2024-03-07T15:25:17;20.52;;;11.70;;
1977;SDS011;989;53.016;8.346;2024-03-07T15:27:44;25.83;;;14.13;;
1977;SDS011;989;53.016;8.346;2024-03-07T15:30:10;25.02;;;13.60;;
1977;SDS011;989;53.016;8.346;2024-03-07T15:32:39;20.40;;;12.85;;
1977;SDS011;989;53.016;8.346;2024-03-07T15:35:06;22.85;;;12.77;;
1977;SDS011;989;53.016;8.346;2024-03-07T15:37:36;26.50;;;12.40;;
1977;SDS011;989;53.016;8.346;2024-03-07T15:40:08;21.47;;;11.80;;
1977;SDS011;989;53.016;8.346;2024-03-07T15:42:37;18.60;;;10.20;;